TAP238 GCFV-GCHI
Flight info
| Callsign | TAP238 |
|---|---|
| Flight time | N/A |
| Altitude | 27000 |
| Route | LORPO DCT DRANO/N0454F340 DCT HIE |
| Aircraft | E190/M-SDE3GILORVW/S |
Departure
| Time | 2026-05-05 17:43 |
|---|---|
| Airport | Fuerteventura Airport (GCFV) |
Arrival
| Time | N/A |
|---|---|
| Airport | El Hierro Airport (GCHI) |
| Time | Latitude | Longitude | Altitude | Speed | Heading |
|---|---|---|---|---|---|
| 2026-05-05 17:23 | 28.45050 | -13.86834 | 83 ft | 0 kts | 272° |
| 2026-05-05 17:34 | 28.45049 | -13.86809 | 84 ft | 4 kts | 271° |
| 2026-05-05 17:34 | 28.45050 | -13.86779 | 84 ft | 4 kts | 253° |
| 2026-05-05 17:34 | 28.45061 | -13.86754 | 83 ft | 4 kts | 215° |
| 2026-05-05 17:35 | 28.45078 | -13.86746 | 81 ft | 1 kts | 179° |
| 2026-05-05 17:35 | 28.45081 | -13.86746 | 81 ft | 0 kts | 179° |
| 2026-05-05 17:36 | 28.45077 | -13.86746 | 81 ft | 2 kts | 179° |
| 2026-05-05 17:37 | 28.45036 | -13.86745 | 83 ft | 10 kts | 179° |
| 2026-05-05 17:37 | 28.44980 | -13.86745 | 75 ft | 15 kts | 179° |
| 2026-05-05 17:37 | 28.44844 | -13.86749 | 76 ft | 24 kts | 183° |
| 2026-05-05 17:37 | 28.44579 | -13.86759 | 67 ft | 34 kts | 180° |
| 2026-05-05 17:38 | 28.44323 | -13.86764 | 67 ft | 38 kts | 180° |
| 2026-05-05 17:38 | 28.44261 | -13.86764 | 63 ft | 0 kts | 180° |
| 2026-05-05 17:41 | 28.44249 | -13.86765 | 62 ft | 5 kts | 181° |
| 2026-05-05 17:41 | 28.44186 | -13.86768 | 65 ft | 13 kts | 184° |
| 2026-05-05 17:41 | 28.44078 | -13.86749 | 61 ft | 19 kts | 127° |
| 2026-05-05 17:41 | 28.43993 | -13.86622 | 59 ft | 24 kts | 162° |
| 2026-05-05 17:42 | 28.43806 | -13.86619 | 58 ft | 30 kts | 183° |
| 2026-05-05 17:42 | 28.43579 | -13.86623 | 55 ft | 28 kts | 184° |
| 2026-05-05 17:42 | 28.43545 | -13.86531 | 54 ft | 21 kts | 33° |
| 2026-05-05 17:42 | 28.43716 | -13.86443 | 53 ft | 37 kts | 11° |
| 2026-05-05 17:43 | 28.44215 | -13.86407 | 64 ft | 107 kts | 2° |
| 2026-05-05 17:43 | 28.45137 | -13.86359 | 252 ft | 150 kts | 5° |
| 2026-05-05 17:43 | 28.46199 | -13.86231 | 1071 ft | 158 kts | 19° |
| 2026-05-05 17:43 | 28.47165 | -13.85595 | 1970 ft | 170 kts | 39° |
| 2026-05-05 17:44 | 28.48177 | -13.84845 | 2922 ft | 181 kts | 30° |
| 2026-05-05 17:44 | 28.49281 | -13.84068 | 3957 ft | 192 kts | 30° |
| 2026-05-05 17:44 | 28.50555 | -13.83314 | 4772 ft | 217 kts | 23° |
| 2026-05-05 17:44 | 28.52001 | -13.82574 | 5702 ft | 239 kts | 21° |
| 2026-05-05 17:45 | 28.53569 | -13.81736 | 6406 ft | 259 kts | 26° |
| 2026-05-05 17:45 | 28.55169 | -13.80658 | 7158 ft | 275 kts | 28° |
| 2026-05-05 17:45 | 28.56865 | -13.79538 | 7942 ft | 288 kts | 25° |
| 2026-05-05 17:45 | 28.58673 | -13.78565 | 8841 ft | 295 kts | 21° |
| 2026-05-05 17:46 | 28.60625 | -13.77811 | 9762 ft | 298 kts | 2° |
| 2026-05-05 17:46 | 28.62702 | -13.77854 | 10544 ft | 305 kts | 350° |
| 2026-05-05 17:46 | 28.64872 | -13.78079 | 11246 ft | 320 kts | 349° |
| 2026-05-05 17:46 | 28.67135 | -13.78298 | 11973 ft | 334 kts | 349° |
| 2026-05-05 17:47 | 28.69507 | -13.78495 | 12673 ft | 349 kts | 349° |
| 2026-05-05 17:47 | 28.71979 | -13.78680 | 13501 ft | 360 kts | 349° |
| 2026-05-05 17:47 | 28.74520 | -13.78700 | 14450 ft | 371 kts | 355° |
| 2026-05-05 17:47 | 28.77083 | -13.78613 | 15390 ft | 377 kts | 354° |
| 2026-05-05 17:48 | 28.79729 | -13.78505 | 16306 ft | 385 kts | 354° |
| 2026-05-05 17:48 | 28.82433 | -13.78386 | 17180 ft | 392 kts | 354° |
| 2026-05-05 17:48 | 28.85173 | -13.78216 | 18091 ft | 401 kts | 360° |
| 2026-05-05 17:48 | 28.87908 | -13.77253 | 18809 ft | 425 kts | 21° |
| 2026-05-05 17:49 | 28.90409 | -13.75346 | 19519 ft | 437 kts | 31° |
| 2026-05-05 17:49 | 28.93017 | -13.73556 | 20164 ft | 438 kts | 21° |
| 2026-05-05 17:49 | 28.95801 | -13.72121 | 20871 ft | 441 kts | 15° |
| 2026-05-05 17:49 | 28.99320 | -13.70672 | 21694 ft | 445 kts | 11° |
| 2026-05-05 17:50 | 29.05224 | -13.68597 | 22913 ft | 456 kts | 8° |
| 2026-05-05 17:50 | 29.11424 | -13.67012 | 24019 ft | 460 kts | 4° |
| 2026-05-05 17:50 | 29.17713 | -13.65565 | 25248 ft | 463 kts | 2° |
| 2026-05-05 17:50 | 29.24083 | -13.64101 | 26265 ft | 471 kts | 2° |
| 2026-05-05 17:51 | 29.30560 | -13.62607 | 27229 ft | 478 kts | 2° |
| 2026-05-05 17:51 | 29.37140 | -13.61087 | 28131 ft | 486 kts | 2° |
| 2026-05-05 17:51 | 29.43798 | -13.59544 | 28951 ft | 493 kts | 2° |
| 2026-05-05 17:51 | 29.57081 | -13.56468 | 30820 ft | 493 kts | 1° |
| 2026-05-05 17:52 | 29.70409 | -13.53374 | 32296 ft | 498 kts | 1° |
| 2026-05-05 17:52 | 29.83979 | -13.50212 | 33872 ft | 495 kts | 0° |
| 2026-05-05 17:52 | 29.97417 | -13.47075 | 35139 ft | 490 kts | 0° |
| 2026-05-05 17:52 | 30.10689 | -13.43966 | 36341 ft | 485 kts | 0° |
| 2026-05-05 17:53 | 30.22836 | -13.41113 | 37422 ft | 481 kts | 360° |
| 2026-05-05 17:53 | 30.29375 | -13.39572 | 37961 ft | 472 kts | 359° |
| 2026-05-05 17:53 | 30.35655 | -13.38102 | 38025 ft | 462 kts | 359° |
| 2026-05-05 17:53 | 30.41955 | -13.36613 | 38065 ft | 473 kts | 359° |
| 2026-05-05 17:54 | 30.53271 | -13.33935 | 38056 ft | 485 kts | 360° |
| 2026-05-05 17:54 | 30.79915 | -13.27614 | 38060 ft | 489 kts | 360° |
| 2026-05-05 17:54 | 30.93158 | -13.23741 | 38049 ft | 504 kts | 12° |
| 2026-05-05 17:55 | 31.05835 | -13.16299 | 38056 ft | 511 kts | 18° |
| 2026-05-05 17:55 | 31.30867 | -13.01219 | 38061 ft | 504 kts | 19° |
| 2026-05-05 17:56 | 31.55473 | -12.86312 | 38059 ft | 499 kts | 20° |
| 2026-05-05 17:56 | 31.80069 | -12.71322 | 38057 ft | 495 kts | 20° |
| 2026-05-05 17:57 | 32.04499 | -12.56343 | 38069 ft | 488 kts | 21° |
| 2026-05-05 17:57 | 32.28652 | -12.41447 | 38102 ft | 489 kts | 21° |
| 2026-05-05 17:58 | 32.52675 | -12.26539 | 38079 ft | 488 kts | 21° |
| 2026-05-05 17:58 | 32.76387 | -12.11736 | 38086 ft | 484 kts | 22° |
| 2026-05-05 17:59 | 33.00164 | -11.96800 | 38081 ft | 484 kts | 22° |
| 2026-05-05 17:59 | 33.23866 | -11.81823 | 38099 ft | 480 kts | 23° |
| 2026-05-05 18:00 | 33.47390 | -11.66865 | 38084 ft | 475 kts | 24° |
| 2026-05-05 18:00 | 33.89670 | -11.39746 | 38108 ft | 474 kts | 24° |
| 2026-05-05 18:01 | 34.35914 | -11.09732 | 38095 ft | 471 kts | 24° |
| 2026-05-05 18:01 | 34.81976 | -10.79447 | 38106 ft | 470 kts | 25° |
| 2026-05-05 18:02 | 35.27856 | -10.48907 | 38103 ft | 470 kts | 25° |
| 2026-05-05 18:02 | 35.73364 | -10.18206 | 38112 ft | 469 kts | 25° |
| 2026-05-05 18:03 | 35.86619 | -10.09190 | 38096 ft | 471 kts | 25° |
| 2026-05-05 18:03 | 35.92350 | -10.05283 | 38124 ft | 474 kts | 25° |
| 2026-05-05 18:04 | 35.98397 | -10.01918 | 38107 ft | 480 kts | 15° |
| 2026-05-05 18:04 | 36.04764 | -9.99660 | 38096 ft | 473 kts | 11° |
| 2026-05-05 18:05 | 36.11120 | -9.97556 | 38108 ft | 473 kts | 10° |
| 2026-05-05 18:05 | 36.17441 | -9.95467 | 38102 ft | 473 kts | 10° |